createdAt,value
2019-02-04T00:01:10.707Z,-0.72
2019-02-04T00:03:37.312Z,-0.74
2019-02-04T00:06:04.024Z,-0.74
2019-02-04T00:08:30.639Z,-0.75
2019-02-04T00:10:59.225Z,-0.76
2019-02-04T00:13:25.845Z,-0.75
2019-02-04T00:15:52.465Z,-0.74
2019-02-04T00:18:19.062Z,-0.74
2019-02-04T00:20:45.652Z,-0.77
2019-02-04T00:23:12.264Z,-0.77
2019-02-04T00:25:39.040Z,-0.77
2019-02-04T00:28:05.622Z,-0.78
2019-02-04T00:30:32.315Z,-0.78
2019-02-04T00:32:58.921Z,-0.79
2019-02-04T00:35:25.611Z,-0.79
2019-02-04T00:37:52.234Z,-0.79
2019-02-04T00:40:18.946Z,-0.80
2019-02-04T00:42:45.957Z,-0.79
2019-02-04T00:45:12.664Z,-0.80
2019-02-04T00:47:39.378Z,-0.81
2019-02-04T00:50:06.101Z,-0.81
2019-02-04T00:52:32.811Z,-0.83
2019-02-04T00:54:59.513Z,-0.83
2019-02-04T00:57:26.200Z,-0.86
2019-02-04T00:59:52.792Z,-0.88
2019-02-04T01:02:19.487Z,-0.86
2019-02-04T01:04:46.209Z,-0.86
2019-02-04T01:07:12.943Z,-0.86
2019-02-04T01:09:39.635Z,-0.87
2019-02-04T01:12:06.243Z,-0.88
2019-02-04T01:14:32.929Z,-0.88
2019-02-04T01:17:03.583Z,-0.88
2019-02-04T01:19:28.131Z,-0.89
2019-02-04T01:21:54.937Z,-0.90
2019-02-04T01:24:21.611Z,-0.90
2019-02-04T01:26:48.312Z,-0.90
2019-02-04T01:29:15.019Z,-0.89
2019-02-04T01:31:41.704Z,-0.90
2019-02-04T01:34:08.419Z,-0.92
2019-02-04T01:36:35.394Z,-0.96
2019-02-04T01:39:02.032Z,-0.97
2019-02-04T01:41:28.720Z,-0.97
2019-02-04T01:43:55.424Z,-0.98
2019-02-04T01:46:22.123Z,-0.98
2019-02-04T01:48:48.741Z,-0.98
2019-02-04T01:51:15.340Z,-0.99
2019-02-04T01:53:41.949Z,-1.00
2019-02-04T01:56:08.551Z,-1.01
2019-02-04T01:58:35.282Z,-1.03
2019-02-04T02:01:01.987Z,-1.03
2019-02-04T02:03:28.674Z,-1.03
2019-02-04T02:05:55.389Z,-1.05
2019-02-04T02:08:22.002Z,-1.03
2019-02-04T02:10:48.717Z,-1.05
2019-02-04T02:13:15.605Z,-1.03
2019-02-04T02:15:42.229Z,-1.00
2019-02-04T02:18:08.832Z,-0.96
2019-02-04T02:20:35.452Z,-0.93
2019-02-04T02:23:02.030Z,-0.92
2019-02-04T02:25:28.692Z,-0.95
2019-02-04T02:27:55.380Z,-0.94
2019-02-04T02:30:23.887Z,-0.94
2019-02-04T02:32:50.601Z,-0.96
2019-02-04T02:35:17.321Z,-0.94
2019-02-04T02:37:44.015Z,-0.96
2019-02-04T02:40:15.358Z,-0.99
2019-02-04T02:42:42.056Z,-1.02
2019-02-04T02:45:08.684Z,-1.02
2019-02-04T02:47:38.457Z,-1.03
2019-02-04T02:50:04.208Z,-1.03
2019-02-04T02:52:30.811Z,-1.03
2019-02-04T02:54:57.508Z,-1.01
2019-02-04T02:57:24.212Z,-1.01
2019-02-04T02:59:50.797Z,-1.00
2019-02-04T03:02:17.481Z,-1.00
2019-02-04T03:04:44.580Z,-1.00
2019-02-04T03:07:11.278Z,-0.97
2019-02-04T03:09:37.992Z,-0.97
2019-02-04T03:12:04.589Z,-0.95
2019-02-04T03:14:31.298Z,-0.92
2019-02-04T03:16:57.906Z,-0.89
2019-02-04T03:19:24.642Z,-0.90
2019-02-04T03:21:51.348Z,-0.92
2019-02-04T03:24:18.029Z,-0.93
2019-02-04T03:26:44.642Z,-0.92
2019-02-04T03:29:11.340Z,-0.88
2019-02-04T03:31:39.997Z,-0.84
2019-02-04T03:34:06.450Z,-0.83
2019-02-04T03:36:33.150Z,-0.80
2019-02-04T03:38:59.877Z,-0.79
2019-02-04T03:41:26.777Z,-0.78
2019-02-04T03:43:53.497Z,-0.76
2019-02-04T03:46:20.091Z,-0.78
2019-02-04T03:48:46.708Z,-0.80
2019-02-04T03:51:13.311Z,-0.79
2019-02-04T03:53:40.040Z,-0.78
2019-02-04T03:56:06.832Z,-0.75
2019-02-04T03:58:33.753Z,-0.72
2019-02-04T04:01:00.475Z,-0.71
2019-02-04T04:03:27.193Z,-0.69
2019-02-04T04:05:53.894Z,-0.69
2019-02-04T04:08:20.593Z,-0.71
2019-02-04T04:10:47.378Z,-0.72
2019-02-04T04:13:14.101Z,-0.73
2019-02-04T04:15:41.305Z,-0.70
2019-02-04T04:18:15.378Z,-0.70
2019-02-04T04:20:36.424Z,-0.69
2019-02-04T04:23:03.131Z,-0.70
2019-02-04T04:25:31.701Z,-0.67
2019-02-04T04:27:58.389Z,-0.67
2019-02-04T04:30:25.351Z,-0.71
2019-02-04T04:32:52.340Z,-0.71
2019-02-04T04:35:18.973Z,-0.71
2019-02-04T04:37:45.669Z,-0.76
2019-02-04T04:40:12.780Z,-0.82
2019-02-04T04:42:39.383Z,-0.84
2019-02-04T04:45:06.317Z,-0.87
2019-02-04T04:47:33.037Z,-0.90
2019-02-04T04:49:59.718Z,-0.92
2019-02-04T04:52:26.313Z,-0.90
2019-02-04T04:54:52.916Z,-0.88
2019-02-04T04:57:19.624Z,-0.88
2019-02-04T04:59:46.336Z,-0.85
2019-02-04T05:02:13.040Z,-0.81
2019-02-04T05:04:39.643Z,-0.79
2019-02-04T05:07:06.386Z,-0.78
2019-02-04T05:09:33.480Z,-0.76
2019-02-04T05:12:00.199Z,-0.74
2019-02-04T05:14:26.908Z,-0.78
2019-02-04T05:16:53.530Z,-0.80
2019-02-04T05:19:20.242Z,-0.79
2019-02-04T05:21:46.934Z,-0.79
2019-02-04T05:24:13.771Z,-0.78
2019-02-04T05:26:40.777Z,-0.78
2019-02-04T05:29:07.491Z,-0.82
2019-02-04T05:31:34.207Z,-0.81
2019-02-04T05:34:00.904Z,-0.80
2019-02-04T05:36:27.616Z,-0.79
2019-02-04T05:38:54.347Z,-0.78
2019-02-04T05:41:21.058Z,-0.78
2019-02-04T05:43:47.765Z,-0.79
2019-02-04T05:46:14.563Z,-0.79
2019-02-04T05:48:49.095Z,-0.79
2019-02-04T05:51:09.667Z,-0.79
2019-02-04T05:53:36.283Z,-0.80
2019-02-04T05:56:03.019Z,-0.80
2019-02-04T05:58:29.741Z,-0.79
2019-02-04T06:00:56.469Z,-0.78
2019-02-04T06:03:23.414Z,-0.78
2019-02-04T06:05:50.105Z,-0.76
2019-02-04T06:08:16.854Z,-0.74
2019-02-04T06:10:43.538Z,-0.76
2019-02-04T06:13:10.143Z,-0.76
2019-02-04T06:15:36.759Z,-0.74
2019-02-04T06:18:03.518Z,-0.74
2019-02-04T06:20:30.250Z,-0.72
2019-02-04T06:22:57.235Z,-0.76
2019-02-04T06:25:24.046Z,-0.82
2019-02-04T06:27:50.765Z,-0.83
2019-02-04T06:30:17.385Z,-0.83
2019-02-04T06:32:44.088Z,-0.80
2019-02-04T06:35:10.885Z,-0.78
2019-02-04T06:37:37.504Z,-0.76
2019-02-04T06:40:04.424Z,-0.71
2019-02-04T06:42:31.033Z,-0.34
2019-02-04T06:44:58.010Z,0.52
2019-02-04T06:47:25.042Z,1.55
2019-02-04T06:49:52.074Z,2.23
2019-02-04T06:52:19.110Z,1.93
2019-02-04T06:54:46.148Z,1.31
2019-02-04T06:57:13.488Z,0.85
2019-02-04T06:59:40.540Z,0.54
2019-02-04T07:02:07.595Z,0.31
2019-02-04T07:04:34.638Z,0.11
2019-02-04T07:07:01.687Z,-0.07
2019-02-04T07:09:28.747Z,-0.16
2019-02-04T07:11:55.827Z,-0.21
2019-02-04T07:14:22.877Z,-0.27
2019-02-04T07:16:49.913Z,-0.28
2019-02-04T07:19:24.262Z,-0.31
2019-02-04T07:21:45.942Z,-0.31
2019-02-04T07:24:13.012Z,-0.34
2019-02-04T07:26:40.098Z,-0.29
2019-02-04T07:29:07.137Z,-0.26
2019-02-04T07:31:34.200Z,-0.32
2019-02-04T07:34:01.638Z,-0.25
2019-02-04T07:36:28.699Z,-0.16
2019-02-04T07:38:55.751Z,0.02
2019-02-04T07:41:22.821Z,0.76
2019-02-04T07:43:49.879Z,2.04
2019-02-04T07:46:16.909Z,3.27
2019-02-04T07:48:43.947Z,4.02
2019-02-04T07:51:11.101Z,3.92
2019-02-04T07:53:38.181Z,3.44
2019-02-04T07:56:05.250Z,2.94
2019-02-04T07:58:32.295Z,2.53
2019-02-04T08:00:59.383Z,2.25
2019-02-04T08:03:26.463Z,1.98
2019-02-04T08:05:53.527Z,1.76
2019-02-04T08:08:20.585Z,1.58
2019-02-04T08:10:47.631Z,1.39
2019-02-04T08:13:14.683Z,1.22
2019-02-04T08:15:41.741Z,1.09
2019-02-04T08:18:08.803Z,0.97
2019-02-04T08:20:35.847Z,0.91
2019-02-04T08:23:02.884Z,0.92
2019-02-04T08:25:29.947Z,0.93
2019-02-04T08:27:57.202Z,0.93
2019-02-04T08:30:26.474Z,0.94
2019-02-04T08:32:53.633Z,0.90
2019-02-04T08:35:20.697Z,0.82
2019-02-04T08:37:47.747Z,0.78
2019-02-04T08:40:14.833Z,0.73
2019-02-04T08:42:42.019Z,0.66
2019-02-04T08:45:10.118Z,0.67
2019-02-04T08:47:37.179Z,0.71
2019-02-04T08:50:05.279Z,0.74
2019-02-04T08:52:32.341Z,0.75
2019-02-04T08:54:59.468Z,0.77
2019-02-04T08:57:26.583Z,0.78
2019-02-04T08:59:53.740Z,0.83
2019-02-04T09:02:20.781Z,0.87
2019-02-04T09:04:48.151Z,0.90
2019-02-04T09:07:15.206Z,0.90
2019-02-04T09:09:42.386Z,0.91
2019-02-04T09:12:10.045Z,0.94
2019-02-04T09:14:37.114Z,0.95
2019-02-04T09:17:04.182Z,1.03
2019-02-04T09:19:31.238Z,1.09
2019-02-04T09:21:58.286Z,1.11
2019-02-04T09:24:25.582Z,1.02
2019-02-04T09:26:52.628Z,1.01
2019-02-04T09:29:19.686Z,1.04
2019-02-04T09:31:46.732Z,1.07
2019-02-04T09:34:13.777Z,1.13
2019-02-04T09:36:40.846Z,1.18
2019-02-04T09:39:08.690Z,1.27
2019-02-04T09:41:36.044Z,1.39
2019-02-04T09:44:03.085Z,1.49
2019-02-04T09:46:30.148Z,1.52
2019-02-04T09:48:57.201Z,1.51
2019-02-04T09:51:24.273Z,1.47
2019-02-04T09:53:51.503Z,1.38
2019-02-04T09:56:18.577Z,1.31
2019-02-04T09:58:45.729Z,1.27
2019-02-04T10:01:12.896Z,1.25
2019-02-04T10:03:39.990Z,1.25
2019-02-04T10:06:07.043Z,1.23
2019-02-04T10:08:34.103Z,1.20
2019-02-04T10:11:01.149Z,1.22
2019-02-04T10:13:28.338Z,1.23
2019-02-04T10:15:58.585Z,1.20
2019-02-04T10:18:25.642Z,1.22
2019-02-04T10:20:52.803Z,1.23
2019-02-04T10:23:20.066Z,1.21
2019-02-04T10:25:47.169Z,1.20
2019-02-04T10:28:14.443Z,1.22
2019-02-04T10:30:41.964Z,1.23
2019-02-04T10:33:09.047Z,1.24
2019-02-04T10:35:36.077Z,1.31
2019-02-04T10:38:03.233Z,1.40
2019-02-04T10:40:30.338Z,1.49
2019-02-04T10:42:57.457Z,1.61
2019-02-04T10:45:25.498Z,1.72
2019-02-04T10:47:52.700Z,1.78
2019-02-04T10:50:21.840Z,1.83
2019-02-04T10:52:49.627Z,1.84
2019-02-04T10:55:17.359Z,1.82
2019-02-04T10:57:44.580Z,1.80
2019-02-04T11:00:14.094Z,1.77
2019-02-04T11:02:41.156Z,1.78
2019-02-04T11:05:10.652Z,1.79
2019-02-04T11:07:38.099Z,1.80
2019-02-04T11:10:06.669Z,1.72
2019-02-04T11:12:33.703Z,1.67
2019-02-04T11:15:00.793Z,1.62
2019-02-04T11:17:27.908Z,1.58
2019-02-04T11:19:54.908Z,1.53
2019-02-04T11:22:21.966Z,1.48
2019-02-04T11:24:49.448Z,1.43
2019-02-04T11:27:35.019Z,1.42
2019-02-04T11:30:31.784Z,1.43
2019-02-04T11:33:17.597Z,1.43
2019-02-04T11:35:47.396Z,1.44
2019-02-04T11:38:14.396Z,1.41
2019-02-04T11:40:41.444Z,1.36
2019-02-04T11:43:09.465Z,1.34
2019-02-04T11:45:36.754Z,1.34
2019-02-04T11:48:06.344Z,1.33
2019-02-04T11:50:33.442Z,1.31
2019-02-04T11:53:00.560Z,1.31
2019-02-04T11:55:27.576Z,1.29
2019-02-04T11:57:54.648Z,1.30
2019-02-04T12:00:23.459Z,1.32
2019-02-04T12:02:51.549Z,1.35
2019-02-04T12:05:19.162Z,1.35
2019-02-04T12:07:46.400Z,1.35
2019-02-04T12:10:34.676Z,1.35
2019-02-04T12:13:01.980Z,1.36
2019-02-04T12:15:29.092Z,1.38
2019-02-04T12:17:56.137Z,1.42
2019-02-04T12:20:23.188Z,1.43
2019-02-04T12:22:50.280Z,1.43
2019-02-04T12:25:19.364Z,1.44
2019-02-04T12:27:46.471Z,1.44
2019-02-04T12:30:17.648Z,1.41
2019-02-04T12:32:44.683Z,1.39
2019-02-04T12:35:11.736Z,1.46
2019-02-04T12:37:38.833Z,1.51
2019-02-04T12:40:06.402Z,1.50
2019-02-04T12:42:33.464Z,1.44
2019-02-04T12:45:00.523Z,1.41
2019-02-04T12:47:27.917Z,1.38
2019-02-04T12:49:54.954Z,1.33
2019-02-04T12:52:22.034Z,1.29
2019-02-04T12:54:49.072Z,1.27
2019-02-04T12:57:16.121Z,1.24
2019-02-04T12:59:45.243Z,1.28
2019-02-04T13:02:12.092Z,1.39
2019-02-04T13:04:39.358Z,1.53
2019-02-04T13:07:06.415Z,1.65
2019-02-04T13:09:33.476Z,1.69
2019-02-04T13:12:00.557Z,1.63
2019-02-04T13:14:27.631Z,1.61
2019-02-04T13:16:54.668Z,1.57
2019-02-04T13:19:21.756Z,1.55
2019-02-04T13:21:49.140Z,1.52
2019-02-04T13:24:16.178Z,1.52
2019-02-04T13:26:43.241Z,1.53
2019-02-04T13:29:10.305Z,1.54
2019-02-04T13:31:37.362Z,1.58
2019-02-04T13:34:04.620Z,1.60
2019-02-04T13:36:31.697Z,1.59
2019-02-04T13:38:58.988Z,1.56
2019-02-04T13:41:26.126Z,1.57
2019-02-04T13:43:53.232Z,1.59
2019-02-04T13:46:20.329Z,1.62
2019-02-04T13:48:47.371Z,1.61
2019-02-04T13:51:14.413Z,1.64
2019-02-04T13:53:41.438Z,1.67
2019-02-04T13:56:08.490Z,1.75
2019-02-04T13:58:35.563Z,1.84
2019-02-04T14:01:02.619Z,1.90
2019-02-04T14:03:29.692Z,1.92
2019-02-04T14:05:56.774Z,1.99
2019-02-04T14:08:23.841Z,2.02
2019-02-04T14:10:50.907Z,2.03
2019-02-04T14:13:17.968Z,2.03
2019-02-04T14:15:45.036Z,1.96
2019-02-04T14:18:12.134Z,1.85
2019-02-04T14:20:39.335Z,1.73
2019-02-04T14:23:06.585Z,1.65
2019-02-04T14:25:33.648Z,1.58
2019-02-04T14:28:03.521Z,1.51
2019-02-04T14:30:36.641Z,1.46
2019-02-04T14:33:25.022Z,1.40
2019-02-04T14:35:52.085Z,1.33
2019-02-04T14:38:19.173Z,1.29
2019-02-04T14:40:46.626Z,1.24
2019-02-04T14:43:35.486Z,1.17
2019-02-04T14:46:14.765Z,1.12
2019-02-04T14:49:17.896Z,1.07
2019-02-04T14:52:20.682Z,0.98
2019-02-04T14:55:02.756Z,0.94
2019-02-04T14:58:23.331Z,0.87
2019-02-04T15:01:31.476Z,0.87
2019-02-04T15:04:26.631Z,0.85
2019-02-04T15:07:26.285Z,0.82
2019-02-04T15:10:24.553Z,0.81
2019-02-04T15:13:29.269Z,0.82
2019-02-04T15:16:33.241Z,0.79
2019-02-04T15:19:25.689Z,0.72
2019-02-04T15:22:33.131Z,0.69
2019-02-04T15:25:34.889Z,0.64
2019-02-04T15:28:43.963Z,0.54
2019-02-04T15:32:08.163Z,0.47
2019-02-04T15:35:26.097Z,0.43
2019-02-04T15:38:16.526Z,0.39
2019-02-04T15:40:52.955Z,0.37
2019-02-04T15:44:00.660Z,0.40
2019-02-04T15:46:44.889Z,0.39
2019-02-04T15:49:50.896Z,0.38
2019-02-04T15:52:15.811Z,0.34
2019-02-04T15:54:43.028Z,0.32
2019-02-04T15:57:10.094Z,0.28
2019-02-04T15:59:37.415Z,0.24
2019-02-04T16:02:04.478Z,0.15
2019-02-04T16:04:32.845Z,0.08
2019-02-04T16:06:59.940Z,-0.02
2019-02-04T16:09:27.308Z,-0.10
2019-02-04T16:11:54.409Z,-0.18
2019-02-04T16:14:21.594Z,-0.26
2019-02-04T16:16:49.111Z,-0.36
2019-02-04T16:19:16.248Z,-0.44
2019-02-04T16:21:43.377Z,-0.53
2019-02-04T16:24:10.488Z,-0.55
2019-02-04T16:26:37.654Z,-0.59
2019-02-04T16:29:04.884Z,-0.64
2019-02-04T16:31:31.964Z,-0.68
2019-02-04T16:33:59.757Z,-0.69
2019-02-04T16:36:26.975Z,-0.65
2019-02-04T16:38:54.144Z,-0.68
2019-02-04T16:41:21.308Z,-0.55
2019-02-04T16:43:48.439Z,-0.49
2019-02-04T16:49:03.100Z,-0.49
2019-02-04T16:51:30.325Z,-0.49
2019-02-04T16:53:57.436Z,-0.47
2019-02-04T16:56:24.567Z,-0.43
2019-02-04T16:58:53.119Z,-0.41
2019-02-04T17:04:07.080Z,-0.46
2019-02-04T17:06:34.203Z,-0.45
2019-02-04T17:09:02.314Z,-0.42
2019-02-04T17:11:40.938Z,-0.56
2019-02-04T17:14:08.237Z,-0.89
2019-02-04T17:16:35.621Z,-1.32
2019-02-04T17:21:57.823Z,-1.36
2019-02-04T17:24:25.046Z,-1.34
2019-02-04T17:26:52.506Z,-1.45
2019-02-04T17:29:19.640Z,-1.71
2019-02-04T17:31:46.759Z,-1.88
2019-02-04T17:34:13.931Z,-2.11
2019-02-04T17:36:41.315Z,-2.24
2019-02-04T17:39:08.554Z,-2.34
2019-02-04T17:41:35.713Z,-2.34
2019-02-04T17:44:03.458Z,-2.30
2019-02-04T17:46:30.850Z,-2.27
2019-02-04T17:49:01.255Z,-2.34
2019-02-04T17:51:28.392Z,-2.49
2019-02-04T17:53:55.558Z,-2.68
2019-02-04T17:56:22.695Z,-2.92
2019-02-04T17:58:49.845Z,-3.02
2019-02-04T18:01:17.538Z,-3.09
2019-02-04T18:03:44.695Z,-3.10
2019-02-04T18:06:11.851Z,-3.05
2019-02-04T18:08:38.981Z,-2.97
2019-02-04T18:11:06.196Z,-2.90
2019-02-04T18:13:33.662Z,-2.86
2019-02-04T18:16:00.860Z,-2.80
2019-02-04T18:18:28.327Z,-2.73
2019-02-04T18:20:57.499Z,-2.70
2019-02-04T18:23:24.528Z,-2.74
2019-02-04T18:25:51.688Z,-2.73
2019-02-04T18:28:19.175Z,-2.78
2019-02-04T18:30:47.888Z,-2.86
2019-02-04T18:33:15.070Z,-2.93
2019-02-04T18:35:42.591Z,-2.97
2019-02-04T18:38:12.354Z,-2.92
2019-02-04T18:40:39.714Z,-2.85
2019-02-04T18:43:07.429Z,-2.80
2019-02-04T18:45:34.679Z,-2.74
2019-02-04T18:48:02.230Z,-2.70
2019-02-04T18:50:29.890Z,-2.65
2019-02-04T18:52:57.599Z,-2.59
2019-02-04T18:55:26.960Z,-2.52
2019-02-04T18:57:55.076Z,-2.47
2019-02-04T19:00:24.159Z,-2.44
2019-02-04T19:02:51.726Z,-2.47
2019-02-04T19:05:20.633Z,-2.60
2019-02-04T19:07:47.915Z,-2.66
2019-02-04T19:10:17.097Z,-2.72
2019-02-04T19:12:46.626Z,-2.76
2019-02-04T19:15:16.638Z,-2.76
2019-02-04T19:17:44.108Z,-2.77
2019-02-04T19:20:14.721Z,-2.81
2019-02-04T19:22:43.949Z,-2.82
2019-02-04T19:25:14.548Z,-2.82
2019-02-04T19:27:42.170Z,-2.89
2019-02-04T19:30:21.009Z,-2.96
2019-02-04T19:32:48.907Z,-3.03
2019-02-04T19:35:18.089Z,-3.18
2019-02-04T19:37:45.782Z,-3.24
2019-02-04T19:40:14.179Z,-3.28
2019-02-04T19:42:42.144Z,-3.31
2019-02-04T19:45:13.426Z,-3.34
2019-02-04T19:47:44.709Z,-3.38
2019-02-04T19:50:18.141Z,-3.43
2019-02-04T19:52:45.615Z,-3.46
2019-02-04T19:55:13.220Z,-3.35
2019-02-04T19:57:43.900Z,-3.32
2019-02-04T20:00:14.940Z,-3.25
2019-02-04T20:02:43.115Z,-3.22
2019-02-04T20:05:11.946Z,-3.27
2019-02-04T20:07:39.913Z,-3.35
2019-02-04T20:10:07.719Z,-3.61
2019-02-04T20:12:35.112Z,-3.88
2019-02-04T20:15:03.916Z,-4.11
2019-02-04T20:17:33.701Z,-4.35
2019-02-04T20:20:01.576Z,-4.52
2019-02-04T20:22:28.973Z,-4.55
2019-02-04T20:24:56.228Z,-4.48
2019-02-04T20:27:23.627Z,-4.40
2019-02-04T20:29:51.941Z,-4.31
2019-02-04T20:32:19.293Z,-4.18
2019-02-04T20:34:46.664Z,-4.04
2019-02-04T20:37:14.539Z,-3.94
2019-02-04T20:39:42.340Z,-3.87
2019-02-04T20:42:10.687Z,-3.82
2019-02-04T20:44:40.206Z,-3.79
2019-02-04T20:47:07.442Z,-3.77
2019-02-04T20:49:35.244Z,-3.77
2019-02-04T20:52:03.497Z,-3.73
2019-02-04T20:54:44.565Z,-3.71
2019-02-04T20:57:01.757Z,-3.75
2019-02-04T20:59:30.397Z,-3.81
2019-02-04T21:01:57.600Z,-3.91
2019-02-04T21:04:24.973Z,-4.07
2019-02-04T21:06:56.286Z,-4.21
2019-02-04T21:09:21.940Z,-4.39
2019-02-04T21:11:49.115Z,-4.58
2019-02-04T21:14:16.457Z,-4.68
2019-02-04T21:16:44.130Z,-4.75
2019-02-04T21:19:12.509Z,-4.81
2019-02-04T21:21:40.744Z,-4.91
2019-02-04T21:24:07.946Z,-4.98
2019-02-04T21:26:35.991Z,-5.03
2019-02-04T21:29:03.191Z,-5.14
2019-02-04T21:31:30.577Z,-5.31
2019-02-04T21:33:58.113Z,-5.49
2019-02-04T21:36:25.249Z,-5.60
2019-02-04T21:38:52.810Z,-5.57
2019-02-04T21:41:20.183Z,-5.52
2019-02-04T21:43:47.404Z,-5.45
2019-02-04T21:46:15.002Z,-5.35
2019-02-04T21:48:42.151Z,-5.25
2019-02-04T21:51:10.466Z,-5.15
2019-02-04T21:53:37.563Z,-5.06
2019-02-04T21:56:04.679Z,-5.08
2019-02-04T21:58:31.906Z,-5.09
2019-02-04T22:00:59.062Z,-5.11
2019-02-04T22:03:26.466Z,-5.15
2019-02-04T22:05:53.578Z,-5.15
2019-02-04T22:08:20.646Z,-5.26
2019-02-04T22:10:48.152Z,-5.32
2019-02-04T22:13:15.204Z,-5.34
2019-02-04T22:15:42.638Z,-5.35
2019-02-04T22:18:09.749Z,-5.35
2019-02-04T22:20:37.158Z,-5.44
2019-02-04T22:23:04.225Z,-5.51
2019-02-04T22:25:31.274Z,-5.53
2019-02-04T22:27:58.329Z,-5.54
2019-02-04T22:30:27.087Z,-5.55
2019-02-04T22:32:54.155Z,-5.55
2019-02-04T22:35:21.297Z,-5.57
2019-02-04T22:37:48.556Z,-5.56
2019-02-04T22:40:23.531Z,-5.55
2019-02-04T22:42:50.742Z,-5.55
2019-02-04T22:45:17.814Z,-5.64
2019-02-04T22:47:44.998Z,-5.62
2019-02-04T22:50:14.935Z,-5.57
2019-02-04T22:52:42.018Z,-5.54
2019-02-04T22:55:09.066Z,-5.53
2019-02-04T22:57:36.212Z,-5.48
2019-02-04T23:00:19.911Z,-5.45
2019-02-04T23:02:46.978Z,-5.47
2019-02-04T23:05:14.039Z,-5.47
2019-02-04T23:07:41.091Z,-5.45
2019-02-04T23:10:08.568Z,-5.44
2019-02-04T23:12:35.609Z,-5.44
2019-02-04T23:15:02.924Z,-5.43
2019-02-04T23:17:29.986Z,-5.43
2019-02-04T23:19:57.038Z,-5.50
2019-02-04T23:22:24.090Z,-5.59
2019-02-04T23:24:51.142Z,-5.57
2019-02-04T23:27:18.502Z,-5.51
2019-02-04T23:29:45.692Z,-5.45
2019-02-04T23:32:12.766Z,-5.39
2019-02-04T23:34:39.836Z,-5.35
2019-02-04T23:37:06.994Z,-5.34
2019-02-04T23:39:34.050Z,-5.40
2019-02-04T23:42:01.089Z,-5.34
2019-02-04T23:44:28.536Z,-5.26
2019-02-04T23:46:55.587Z,-5.21
2019-02-04T23:49:22.631Z,-5.15
2019-02-04T23:51:49.697Z,-5.06
2019-02-04T23:54:16.752Z,-4.98
2019-02-04T23:56:46.819Z,-4.92
2019-02-04T23:59:13.873Z,-4.91
